EVRA/RIX METAR and TAF weather

Enter ICAO airport designator
Station Type Date Time Source
EVRA METAR 2021/05/14 02:50 UTC NOAA

EVRA 140250Z 08007KT 9999 FEW044 09/07 Q1005 NOSIG


Station Type Date Time Source
EVRA Decoded METAR 2021/05/14 02:50 UTC NOAA

Riga International Airport, Latvia (EVRA) 56-55N 023-58E
May 13, 2021 - 10:50 PM EDT / 2021.05.14 0250 UTC
Wind: from the E (080 degrees) at 8 MPH (7 KT):0
Visibility: greater than 7 mile(s):0
Sky conditions: mostly clear
Temperature: 48 F (9 C)
Dew Point: 44 F (7 C)
Relative Humidity: 87%
Pressure (altimeter): 29.68 in. Hg (1005 hPa)
ob: EVRA 140250Z 08007KT 9999 FEW044 09/07 Q1005 NOSIG
cycle: 3

Station Type Date Time Source
EVRA TAF 2021/05/14 03:03 UTC NOAA

TAF TAF EVRA 140202Z 1403/1503 10009KT 9999 OVC030
TEMPO 1404/1421 BKN012 SCT015CB
TEMPO 1421/1503 0700 FG VV001

Example: see airport list